sensor_id;sensor_type;location;lat;lon;timestamp;pressure;altitude;pressure_sealevel;temperature;humidity
28606;BME280;46498;49.968;7.754;2023-08-31T00:02:08;-18639.00;;;11.34;100.00
28606;BME280;46498;49.968;7.754;2023-08-31T00:07:10;-18639.00;;;11.32;100.00
28606;BME280;46498;49.968;7.754;2023-08-31T00:12:11;-18636.00;;;11.25;100.00
28606;BME280;46498;49.968;7.754;2023-08-31T00:17:12;-18637.00;;;11.27;100.00
28606;BME280;46498;49.968;7.754;2023-08-31T00:22:14;-18638.00;;;11.31;100.00
28606;BME280;46498;49.968;7.754;2023-08-31T00:27:14;-18637.00;;;11.26;100.00
28606;BME280;46498;49.968;7.754;2023-08-31T00:32:17;-18639.00;;;11.32;100.00
28606;BME280;46498;49.968;7.754;2023-08-31T00:37:19;-18639.00;;;11.34;100.00
28606;BME280;46498;49.968;7.754;2023-08-31T00:42:22;-18641.00;;;11.41;100.00
28606;BME280;46498;49.968;7.754;2023-08-31T00:47:23;-18640.00;;;11.37;100.00
28606;BME280;46498;49.968;7.754;2023-08-31T00:52:24;-18637.00;;;11.26;100.00
28606;BME280;46498;49.968;7.754;2023-08-31T00:57:26;-18635.00;;;11.21;100.00
28606;BME280;46498;49.968;7.754;2023-08-31T01:02:34;-18640.00;;;11.36;100.00
28606;BME280;46498;49.968;7.754;2023-08-31T01:07:58;-18640.00;;;11.37;100.00
28606;BME280;46498;49.968;7.754;2023-08-31T01:13:11;-18644.00;;;11.49;100.00
28606;BME280;46498;49.968;7.754;2023-08-31T01:18:16;-18645.00;;;11.52;100.00
28606;BME280;46498;49.968;7.754;2023-08-31T01:23:19;-18646.00;;;11.57;100.00
28606;BME280;46498;49.968;7.754;2023-08-31T01:28:20;-18646.00;;;11.56;100.00
28606;BME280;46498;49.968;7.754;2023-08-31T01:33:21;-18647.00;;;11.60;100.00
28606;BME280;46498;49.968;7.754;2023-08-31T01:38:26;-18643.00;;;11.48;100.00
28606;BME280;46498;49.968;7.754;2023-08-31T01:43:28;-18640.00;;;11.37;100.00
28606;BME280;46498;49.968;7.754;2023-08-31T01:48:38;-18638.00;;;11.31;100.00
28606;BME280;46498;49.968;7.754;2023-08-31T01:53:39;-18634.00;;;11.17;100.00
28606;BME280;46498;49.968;7.754;2023-08-31T01:58:41;-18628.00;;;11.00;100.00
28606;BME280;46498;49.968;7.754;2023-08-31T02:03:42;-18623.00;;;10.84;100.00
28606;BME280;46498;49.968;7.754;2023-08-31T02:08:43;-18621.00;;;10.79;100.00
28606;BME280;46498;49.968;7.754;2023-08-31T02:13:47;-18619.00;;;10.72;100.00
28606;BME280;46498;49.968;7.754;2023-08-31T02:18:48;-18619.00;;;10.71;100.00
28606;BME280;46498;49.968;7.754;2023-08-31T02:23:50;-18621.00;;;10.77;100.00
28606;BME280;46498;49.968;7.754;2023-08-31T02:28:51;-18624.00;;;10.86;100.00
28606;BME280;46498;49.968;7.754;2023-08-31T02:33:52;-18622.00;;;10.82;100.00
28606;BME280;46498;49.968;7.754;2023-08-31T02:38:53;-18616.00;;;10.60;100.00
28606;BME280;46498;49.968;7.754;2023-08-31T02:43:54;-18615.00;;;10.60;100.00
28606;BME280;46498;49.968;7.754;2023-08-31T02:48:55;-18613.00;;;10.53;100.00
28606;BME280;46498;49.968;7.754;2023-08-31T02:53:56;-18611.00;;;10.45;100.00
28606;BME280;46498;49.968;7.754;2023-08-31T02:58:58;-18611.00;;;10.45;100.00
28606;BME280;46498;49.968;7.754;2023-08-31T03:03:59;-18611.00;;;10.47;100.00
28606;BME280;46498;49.968;7.754;2023-08-31T03:09:00;-18609.00;;;10.39;100.00
28606;BME280;46498;49.968;7.754;2023-08-31T03:14:02;-18611.00;;;10.45;100.00
28606;BME280;46498;49.968;7.754;2023-08-31T03:19:04;-18611.00;;;10.47;100.00
28606;BME280;46498;49.968;7.754;2023-08-31T03:24:05;-18611.00;;;10.45;100.00
28606;BME280;46498;49.968;7.754;2023-08-31T03:29:06;-18609.00;;;10.39;100.00
28606;BME280;46498;49.968;7.754;2023-08-31T03:34:07;-18612.00;;;10.51;100.00
28606;BME280;46498;49.968;7.754;2023-08-31T03:39:08;-18604.00;;;10.25;100.00
28606;BME280;46498;49.968;7.754;2023-08-31T03:44:10;-18600.00;;;10.13;100.00
28606;BME280;46498;49.968;7.754;2023-08-31T03:49:11;-18596.00;;;9.98;100.00
28606;BME280;46498;49.968;7.754;2023-08-31T03:54:12;-18596.00;;;9.98;100.00
28606;BME280;46498;49.968;7.754;2023-08-31T03:59:14;-18597.00;;;10.01;100.00
28606;BME280;46498;49.968;7.754;2023-08-31T04:04:15;-18598.00;;;10.06;100.00
28606;BME280;46498;49.968;7.754;2023-08-31T04:09:15;-18599.00;;;10.09;100.00
28606;BME280;46498;49.968;7.754;2023-08-31T04:14:16;-18604.00;;;10.25;100.00
28606;BME280;46498;49.968;7.754;2023-08-31T04:19:19;-18604.00;;;10.23;100.00
28606;BME280;46498;49.968;7.754;2023-08-31T04:24:19;-18601.00;;;10.15;100.00
28606;BME280;46498;49.968;7.754;2023-08-31T04:29:20;-18590.00;;;9.80;100.00
28606;BME280;46498;49.968;7.754;2023-08-31T04:34:21;-18587.00;;;9.69;100.00
28606;BME280;46498;49.968;7.754;2023-08-31T04:39:22;-18583.00;;;9.60;100.00
28606;BME280;46498;49.968;7.754;2023-08-31T04:44:23;-18588.00;;;9.74;100.00
28606;BME280;46498;49.968;7.754;2023-08-31T04:49:24;-18584.00;;;9.62;100.00
28606;BME280;46498;49.968;7.754;2023-08-31T04:54:25;-18578.00;;;9.42;100.00
28606;BME280;46498;49.968;7.754;2023-08-31T04:59:26;-18582.00;;;9.56;100.00
28606;BME280;46498;49.968;7.754;2023-08-31T05:04:27;-18584.00;;;9.62;100.00
28606;BME280;46498;49.968;7.754;2023-08-31T05:09:29;-18593.00;;;9.88;100.00
28606;BME280;46498;49.968;7.754;2023-08-31T05:14:32;-18593.00;;;9.91;100.00
28606;BME280;46498;49.968;7.754;2023-08-31T05:19:36;-18597.00;;;10.03;100.00
28606;BME280;46498;49.968;7.754;2023-08-31T05:24:37;-18597.00;;;10.01;100.00
28606;BME280;46498;49.968;7.754;2023-08-31T05:29:37;-18596.00;;;10.00;100.00
28606;BME280;46498;49.968;7.754;2023-08-31T05:34:38;-18595.00;;;9.97;100.00
28606;BME280;46498;49.968;7.754;2023-08-31T05:39:41;-18592.00;;;9.86;100.00
28606;BME280;46498;49.968;7.754;2023-08-31T05:44:41;-18588.00;;;9.75;100.00
28606;BME280;46498;49.968;7.754;2023-08-31T05:49:42;-18589.00;;;9.76;100.00
28606;BME280;46498;49.968;7.754;2023-08-31T05:54:43;-18593.00;;;9.89;100.00
28606;BME280;46498;49.968;7.754;2023-08-31T05:59:44;-18589.00;;;9.77;100.00
28606;BME280;46498;49.968;7.754;2023-08-31T06:04:45;-18595.00;;;9.95;100.00
28606;BME280;46498;49.968;7.754;2023-08-31T06:09:46;-18592.00;;;9.88;100.00
28606;BME280;46498;49.968;7.754;2023-08-31T06:14:47;-18592.00;;;9.86;100.00
28606;BME280;46498;49.968;7.754;2023-08-31T06:19:48;-18598.00;;;10.04;100.00
28606;BME280;46498;49.968;7.754;2023-08-31T06:24:49;-18601.00;;;10.14;100.00
28606;BME280;46498;49.968;7.754;2023-08-31T06:29:49;-18600.00;;;10.10;100.00
28606;BME280;46498;49.968;7.754;2023-08-31T06:34:51;-18601.00;;;10.14;100.00
28606;BME280;46498;49.968;7.754;2023-08-31T06:39:52;-18605.00;;;10.28;100.00
28606;BME280;46498;49.968;7.754;2023-08-31T06:44:53;-18609.00;;;10.39;100.00
28606;BME280;46498;49.968;7.754;2023-08-31T06:49:56;-18614.00;;;10.55;100.00
28606;BME280;46498;49.968;7.754;2023-08-31T06:54:58;-18621.00;;;10.77;100.00
28606;BME280;46498;49.968;7.754;2023-08-31T06:59:59;-18623.00;;;10.83;100.00
28606;BME280;46498;49.968;7.754;2023-08-31T07:05:01;-18624.00;;;10.88;100.00
28606;BME280;46498;49.968;7.754;2023-08-31T07:10:03;-18624.00;;;10.86;100.00
28606;BME280;46498;49.968;7.754;2023-08-31T07:15:06;-18627.00;;;10.96;100.00
28606;BME280;46498;49.968;7.754;2023-08-31T07:20:08;-18633.00;;;11.14;100.00
28606;BME280;46498;49.968;7.754;2023-08-31T07:25:10;-18635.00;;;11.20;100.00
28606;BME280;46498;49.968;7.754;2023-08-31T07:30:10;-18641.00;;;11.40;100.00
28606;BME280;46498;49.968;7.754;2023-08-31T07:35:11;-18653.00;;;11.78;100.00
28606;BME280;46498;49.968;7.754;2023-08-31T07:40:12;-18666.00;;;12.18;100.00
28606;BME280;46498;49.968;7.754;2023-08-31T07:45:13;-18674.00;;;12.44;100.00
28606;BME280;46498;49.968;7.754;2023-08-31T07:50:14;-18679.00;;;12.58;100.00
28606;BME280;46498;49.968;7.754;2023-08-31T07:55:15;-18686.00;;;12.81;100.00
28606;BME280;46498;49.968;7.754;2023-08-31T08:00:17;-18690.00;;;12.95;100.00
28606;BME280;46498;49.968;7.754;2023-08-31T08:05:18;-18697.00;;;13.14;100.00
28606;BME280;46498;49.968;7.754;2023-08-31T08:10:20;-18702.00;;;13.32;100.00
28606;BME280;46498;49.968;7.754;2023-08-31T08:15:21;-18712.00;;;13.64;100.00
28606;BME280;46498;49.968;7.754;2023-08-31T08:20:23;-18710.00;;;13.56;100.00
28606;BME280;46498;49.968;7.754;2023-08-31T08:25:24;-18704.00;;;13.39;100.00
28606;BME280;46498;49.968;7.754;2023-08-31T08:30:25;-18714.00;;;13.68;100.00
28606;BME280;46498;49.968;7.754;2023-08-31T08:35:26;-18718.00;;;13.83;100.00
28606;BME280;46498;49.968;7.754;2023-08-31T08:40:27;-18726.00;;;14.08;100.00
28606;BME280;46498;49.968;7.754;2023-08-31T08:45:36;-18729.00;;;14.16;100.00
28606;BME280;46498;49.968;7.754;2023-08-31T08:50:38;-18729.00;;;14.17;100.00
28606;BME280;46498;49.968;7.754;2023-08-31T08:55:41;-18735.00;;;14.34;100.00
28606;BME280;46498;49.968;7.754;2023-08-31T09:00:42;-18743.00;;;14.61;100.00
28606;BME280;46498;49.968;7.754;2023-08-31T09:05:43;-18755.00;;;14.98;99.15
28606;BME280;46498;49.968;7.754;2023-08-31T09:10:45;-18758.00;;;15.09;95.71
28606;BME280;46498;49.968;7.754;2023-08-31T09:15:48;-18761.00;;;15.17;95.74
28606;BME280;46498;49.968;7.754;2023-08-31T09:20:50;-18766.00;;;15.34;90.13
28606;BME280;46498;49.968;7.754;2023-08-31T09:25:53;-18763.00;;;15.22;88.85
28606;BME280;46498;49.968;7.754;2023-08-31T09:31:07;-18754.00;;;14.95;88.85
28606;BME280;46498;49.968;7.754;2023-08-31T09:36:09;-18759.00;;;15.10;84.44
28606;BME280;46498;49.968;7.754;2023-08-31T09:41:10;-18766.00;;;15.33;83.72
28606;BME280;46498;49.968;7.754;2023-08-31T09:46:11;-18780.00;;;15.77;81.32
28606;BME280;46498;49.968;7.754;2023-08-31T09:51:15;-18784.00;;;15.89;78.53
28606;BME280;46498;49.968;7.754;2023-08-31T09:56:34;-18786.00;;;15.96;75.34
28606;BME280;46498;49.968;7.754;2023-08-31T10:01:37;-18794.00;;;16.22;77.60
28606;BME280;46498;49.968;7.754;2023-08-31T10:06:39;-18807.00;;;16.61;76.66
28606;BME280;46498;49.968;7.754;2023-08-31T10:11:40;-18816.00;;;16.89;73.74
28606;BME280;46498;49.968;7.754;2023-08-31T10:16:44;-18819.00;;;16.99;74.12
28606;BME280;46498;49.968;7.754;2023-08-31T10:21:45;-18827.00;;;17.25;67.93
28606;BME280;46498;49.968;7.754;2023-08-31T10:26:46;-18831.00;;;17.38;67.71
28606;BME280;46498;49.968;7.754;2023-08-31T10:31:49;-18835.00;;;17.50;63.54
28606;BME280;46498;49.968;7.754;2023-08-31T10:36:50;-18830.00;;;17.35;64.23
28606;BME280;46498;49.968;7.754;2023-08-31T10:42:05;-18845.00;;;17.82;62.66
28606;BME280;46498;49.968;7.754;2023-08-31T10:47:07;-18846.00;;;17.84;60.15
28606;BME280;46498;49.968;7.754;2023-08-31T10:52:17;-18859.00;;;18.26;57.65
28606;BME280;46498;49.968;7.754;2023-08-31T10:57:37;-18857.00;;;18.18;60.75
28606;BME280;46498;49.968;7.754;2023-08-31T11:08:02;-18832.00;;;17.40;56.84
28606;BME280;46498;49.968;7.754;2023-08-31T11:13:04;-18826.00;;;17.21;57.63
28606;BME280;46498;49.968;7.754;2023-08-31T11:18:05;-18842.00;;;17.70;52.25
28606;BME280;46498;49.968;7.754;2023-08-31T11:23:06;-18842.00;;;17.73;49.87
28606;BME280;46498;49.968;7.754;2023-08-31T11:28:08;-18838.00;;;17.60;49.48
28606;BME280;46498;49.968;7.754;2023-08-31T11:33:09;-18844.00;;;17.78;51.19
28606;BME280;46498;49.968;7.754;2023-08-31T11:38:12;-18846.00;;;17.85;49.90
28606;BME280;46498;49.968;7.754;2023-08-31T11:43:14;-18851.00;;;18.01;51.11
28606;BME280;46498;49.968;7.754;2023-08-31T11:48:16;-18857.00;;;18.20;48.72
28606;BME280;46498;49.968;7.754;2023-08-31T11:53:17;-18873.00;;;18.70;47.80
28606;BME280;46498;49.968;7.754;2023-08-31T11:58:18;-18869.00;;;18.56;46.93
28606;BME280;46498;49.968;7.754;2023-08-31T12:03:19;-18867.00;;;18.50;45.68
28606;BME280;46498;49.968;7.754;2023-08-31T12:08:27;-18868.00;;;18.54;47.70
28606;BME280;46498;49.968;7.754;2023-08-31T12:13:28;-18870.00;;;18.59;48.52
28606;BME280;46498;49.968;7.754;2023-08-31T12:18:30;-18885.00;;;19.07;46.82
28606;BME280;46498;49.968;7.754;2023-08-31T12:23:34;-18876.00;;;18.79;45.82
28606;BME280;46498;49.968;7.754;2023-08-31T12:28:35;-18885.00;;;19.06;44.31
28606;BME280;46498;49.968;7.754;2023-08-31T12:33:36;-18881.00;;;18.96;44.18
28606;BME280;46498;49.968;7.754;2023-08-31T12:38:37;-18867.00;;;18.51;45.97
28606;BME280;46498;49.968;7.754;2023-08-31T12:43:38;-18858.00;;;18.21;47.33
28606;BME280;46498;49.968;7.754;2023-08-31T12:48:40;-18877.00;;;18.81;48.20
28606;BME280;46498;49.968;7.754;2023-08-31T12:53:41;-18857.00;;;18.20;47.46
28606;BME280;46498;49.968;7.754;2023-08-31T12:58:42;-18870.00;;;18.61;48.05
28606;BME280;46498;49.968;7.754;2023-08-31T13:03:43;-18869.00;;;18.57;47.33
28606;BME280;46498;49.968;7.754;2023-08-31T13:08:44;-18862.00;;;18.36;50.03
28606;BME280;46498;49.968;7.754;2023-08-31T13:13:46;-18850.00;;;17.98;50.21
28606;BME280;46498;49.968;7.754;2023-08-31T13:18:47;-18851.00;;;17.99;53.25
28606;BME280;46498;49.968;7.754;2023-08-31T13:23:47;-18858.00;;;18.23;54.43
28606;BME280;46498;49.968;7.754;2023-08-31T13:28:48;-18872.00;;;18.67;53.67
28606;BME280;46498;49.968;7.754;2023-08-31T13:33:49;-18883.00;;;19.02;50.98
28606;BME280;46498;49.968;7.754;2023-08-31T13:38:50;-18873.00;;;18.70;51.10
28606;BME280;46498;49.968;7.754;2023-08-31T13:43:51;-18885.00;;;19.07;46.01
28606;BME280;46498;49.968;7.754;2023-08-31T13:48:52;-18863.00;;;18.39;46.75
28606;BME280;46498;49.968;7.754;2023-08-31T13:53:54;-18853.00;;;18.05;48.11
28606;BME280;46498;49.968;7.754;2023-08-31T13:58:55;-18864.00;;;18.40;48.94
28606;BME280;46498;49.968;7.754;2023-08-31T14:03:56;-18855.00;;;18.12;51.50
28606;BME280;46498;49.968;7.754;2023-08-31T14:08:57;-18848.00;;;17.90;51.74
28606;BME280;46498;49.968;7.754;2023-08-31T14:14:02;-18871.00;;;18.63;49.16
28606;BME280;46498;49.968;7.754;2023-08-31T14:19:11;-18881.00;;;18.93;50.04
28606;BME280;46498;49.968;7.754;2023-08-31T14:24:12;-18855.00;;;18.14;51.33
28606;BME280;46498;49.968;7.754;2023-08-31T14:29:13;-18833.00;;;17.44;51.15
28606;BME280;46498;49.968;7.754;2023-08-31T14:34:14;-18831.00;;;17.38;52.21
28606;BME280;46498;49.968;7.754;2023-08-31T14:39:14;-18831.00;;;17.37;54.19
28606;BME280;46498;49.968;7.754;2023-08-31T14:44:15;-18829.00;;;17.32;56.59
28606;BME280;46498;49.968;7.754;2023-08-31T14:49:16;-18826.00;;;17.21;58.32
28606;BME280;46498;49.968;7.754;2023-08-31T14:54:17;-18820.00;;;17.02;59.12
28606;BME280;46498;49.968;7.754;2023-08-31T14:59:18;-18824.00;;;17.16;59.55
28606;BME280;46498;49.968;7.754;2023-08-31T15:04:19;-18829.00;;;17.32;60.18
28606;BME280;46498;49.968;7.754;2023-08-31T15:09:20;-18827.00;;;17.23;59.43
28606;BME280;46498;49.968;7.754;2023-08-31T15:14:21;-18819.00;;;16.99;59.36
28606;BME280;46498;49.968;7.754;2023-08-31T15:19:22;-18816.00;;;16.91;63.73
28606;BME280;46498;49.968;7.754;2023-08-31T15:24:23;-18816.00;;;16.91;64.57
28606;BME280;46498;49.968;7.754;2023-08-31T15:29:23;-18817.00;;;16.94;63.58
28606;BME280;46498;49.968;7.754;2023-08-31T15:34:24;-18818.00;;;16.97;63.96
28606;BME280;46498;49.968;7.754;2023-08-31T15:39:26;-18827.00;;;17.24;66.51
28606;BME280;46498;49.968;7.754;2023-08-31T15:44:27;-18831.00;;;17.36;62.77
28606;BME280;46498;49.968;7.754;2023-08-31T15:49:28;-18830.00;;;17.33;65.33
28606;BME280;46498;49.968;7.754;2023-08-31T15:54:29;-18828.00;;;17.28;60.63
28606;BME280;46498;49.968;7.754;2023-08-31T15:59:30;-18820.00;;;17.04;60.66
28606;BME280;46498;49.968;7.754;2023-08-31T16:04:31;-18817.00;;;16.92;62.53
28606;BME280;46498;49.968;7.754;2023-08-31T16:09:32;-18811.00;;;16.75;60.07
28606;BME280;46498;49.968;7.754;2023-08-31T16:14:33;-18807.00;;;16.63;61.40
28606;BME280;46498;49.968;7.754;2023-08-31T16:19:34;-18805.00;;;16.55;60.80
28606;BME280;46498;49.968;7.754;2023-08-31T16:24:35;-18805.00;;;16.57;61.15
28606;BME280;46498;49.968;7.754;2023-08-31T16:29:36;-18803.00;;;16.48;61.90
28606;BME280;46498;49.968;7.754;2023-08-31T16:34:37;-18801.00;;;16.44;65.57
28606;BME280;46498;49.968;7.754;2023-08-31T16:39:38;-18799.00;;;16.36;64.50
28606;BME280;46498;49.968;7.754;2023-08-31T16:44:39;-18796.00;;;16.28;63.62
28606;BME280;46498;49.968;7.754;2023-08-31T16:49:40;-18791.00;;;16.10;64.35
28606;BME280;46498;49.968;7.754;2023-08-31T16:54:43;-18790.00;;;16.07;66.06
28606;BME280;46498;49.968;7.754;2023-08-31T16:59:44;-18787.00;;;15.99;68.52
28606;BME280;46498;49.968;7.754;2023-08-31T17:04:45;-18786.00;;;15.95;70.70
28606;BME280;46498;49.968;7.754;2023-08-31T17:09:46;-18778.00;;;15.72;77.93
28606;BME280;46498;49.968;7.754;2023-08-31T17:14:47;-18774.00;;;15.59;79.42
28606;BME280;46498;49.968;7.754;2023-08-31T17:19:51;-18768.00;;;15.39;83.31
28606;BME280;46498;49.968;7.754;2023-08-31T17:24:51;-18763.00;;;15.23;89.98
28606;BME280;46498;49.968;7.754;2023-08-31T17:29:52;-18757.00;;;15.05;95.44
28606;BME280;46498;49.968;7.754;2023-08-31T17:34:53;-18753.00;;;14.91;98.02
28606;BME280;46498;49.968;7.754;2023-08-31T17:39:54;-18747.00;;;14.73;100.00
28606;BME280;46498;49.968;7.754;2023-08-31T17:44:55;-18739.00;;;14.49;100.00
28606;BME280;46498;49.968;7.754;2023-08-31T17:49:56;-18734.00;;;14.33;100.00
28606;BME280;46498;49.968;7.754;2023-08-31T17:54:57;-18732.00;;;14.26;100.00
28606;BME280;46498;49.968;7.754;2023-08-31T17:59:58;-18728.00;;;14.15;100.00
28606;BME280;46498;49.968;7.754;2023-08-31T18:04:59;-18724.00;;;14.00;100.00
28606;BME280;46498;49.968;7.754;2023-08-31T18:10:03;-18722.00;;;13.93;100.00
28606;BME280;46498;49.968;7.754;2023-08-31T18:15:05;-18718.00;;;13.81;100.00
28606;BME280;46498;49.968;7.754;2023-08-31T18:20:07;-18716.00;;;13.76;100.00
28606;BME280;46498;49.968;7.754;2023-08-31T18:25:08;-18715.00;;;13.74;100.00
28606;BME280;46498;49.968;7.754;2023-08-31T18:30:10;-18718.00;;;13.81;100.00
28606;BME280;46498;49.968;7.754;2023-08-31T18:35:11;-18719.00;;;13.86;100.00
28606;BME280;46498;49.968;7.754;2023-08-31T18:40:12;-18719.00;;;13.87;100.00
28606;BME280;46498;49.968;7.754;2023-08-31T18:45:15;-18713.00;;;13.66;100.00
28606;BME280;46498;49.968;7.754;2023-08-31T18:50:18;-18708.00;;;13.50;100.00
28606;BME280;46498;49.968;7.754;2023-08-31T18:55:21;-18706.00;;;13.44;100.00
28606;BME280;46498;49.968;7.754;2023-08-31T19:00:23;-18702.00;;;13.32;100.00
28606;BME280;46498;49.968;7.754;2023-08-31T19:05:26;-18698.00;;;13.19;100.00
28606;BME280;46498;49.968;7.754;2023-08-31T19:10:27;-18697.00;;;13.18;100.00
28606;BME280;46498;49.968;7.754;2023-08-31T19:15:28;-18698.00;;;13.21;100.00
28606;BME280;46498;49.968;7.754;2023-08-31T19:20:29;-18698.00;;;13.20;100.00
28606;BME280;46498;49.968;7.754;2023-08-31T19:25:30;-18698.00;;;13.18;100.00
28606;BME280;46498;49.968;7.754;2023-08-31T19:30:32;-18698.00;;;13.19;100.00
28606;BME280;46498;49.968;7.754;2023-08-31T19:35:33;-18697.00;;;13.15;100.00
28606;BME280;46498;49.968;7.754;2023-08-31T19:40:37;-18696.00;;;13.14;100.00
28606;BME280;46498;49.968;7.754;2023-08-31T19:45:38;-18696.00;;;13.11;100.00
28606;BME280;46498;49.968;7.754;2023-08-31T19:50:39;-18697.00;;;13.18;100.00
28606;BME280;46498;49.968;7.754;2023-08-31T19:55:40;-18694.00;;;13.07;100.00
28606;BME280;46498;49.968;7.754;2023-08-31T20:00:41;-18691.00;;;12.96;100.00
28606;BME280;46498;49.968;7.754;2023-08-31T20:05:42;-18692.00;;;12.99;100.00
28606;BME280;46498;49.968;7.754;2023-08-31T20:10:43;-18694.00;;;13.06;100.00
28606;BME280;46498;49.968;7.754;2023-08-31T20:15:44;-18694.00;;;13.08;100.00
28606;BME280;46498;49.968;7.754;2023-08-31T20:20:47;-18694.00;;;13.07;100.00
28606;BME280;46498;49.968;7.754;2023-08-31T20:25:52;-18689.00;;;12.91;100.00
28606;BME280;46498;49.968;7.754;2023-08-31T20:30:56;-18691.00;;;12.97;100.00
28606;BME280;46498;49.968;7.754;2023-08-31T20:36:05;-18688.00;;;12.88;100.00
28606;BME280;46498;49.968;7.754;2023-08-31T20:41:06;-18690.00;;;12.93;100.00
28606;BME280;46498;49.968;7.754;2023-08-31T20:46:09;-18690.00;;;12.93;100.00
28606;BME280;46498;49.968;7.754;2023-08-31T20:51:11;-18693.00;;;13.04;100.00
28606;BME280;46498;49.968;7.754;2023-08-31T20:56:12;-18695.00;;;13.09;100.00
28606;BME280;46498;49.968;7.754;2023-08-31T21:01:13;-18698.00;;;13.19;100.00
28606;BME280;46498;49.968;7.754;2023-08-31T21:06:14;-18694.00;;;13.07;100.00
28606;BME280;46498;49.968;7.754;2023-08-31T21:11:15;-18697.00;;;13.18;100.00
28606;BME280;46498;49.968;7.754;2023-08-31T21:16:16;-18699.00;;;13.23;100.00
28606;BME280;46498;49.968;7.754;2023-08-31T21:21:17;-18701.00;;;13.29;100.00
28606;BME280;46498;49.968;7.754;2023-08-31T21:26:18;-18701.00;;;13.30;100.00
28606;BME280;46498;49.968;7.754;2023-08-31T21:31:19;-18693.00;;;13.03;100.00
28606;BME280;46498;49.968;7.754;2023-08-31T21:36:20;-18690.00;;;12.94;100.00
28606;BME280;46498;49.968;7.754;2023-08-31T21:41:21;-18691.00;;;12.97;100.00
28606;BME280;46498;49.968;7.754;2023-08-31T21:46:22;-18692.00;;;13.00;100.00
28606;BME280;46498;49.968;7.754;2023-08-31T21:51:23;-18684.00;;;12.75;100.00
28606;BME280;46498;49.968;7.754;2023-08-31T21:56:24;-18684.00;;;12.75;100.00
28606;BME280;46498;49.968;7.754;2023-08-31T22:01:25;-18683.00;;;12.72;100.00
28606;BME280;46498;49.968;7.754;2023-08-31T22:06:26;-18682.00;;;12.69;100.00
28606;BME280;46498;49.968;7.754;2023-08-31T22:11:28;-18684.00;;;12.75;100.00
28606;BME280;46498;49.968;7.754;2023-08-31T22:16:29;-18681.00;;;12.67;100.00
28606;BME280;46498;49.968;7.754;2023-08-31T22:21:31;-18681.00;;;12.67;100.00
28606;BME280;46498;49.968;7.754;2023-08-31T22:26:32;-18682.00;;;12.68;100.00
28606;BME280;46498;49.968;7.754;2023-08-31T22:31:33;-18677.00;;;12.52;100.00
28606;BME280;46498;49.968;7.754;2023-08-31T22:36:34;-18671.00;;;12.34;100.00
28606;BME280;46498;49.968;7.754;2023-08-31T22:41:35;-18670.00;;;12.30;100.00
28606;BME280;46498;49.968;7.754;2023-08-31T22:46:36;-18674.00;;;12.45;100.00
28606;BME280;46498;49.968;7.754;2023-08-31T22:51:37;-18668.00;;;12.26;100.00
28606;BME280;46498;49.968;7.754;2023-08-31T22:56:38;-18671.00;;;12.33;100.00
28606;BME280;46498;49.968;7.754;2023-08-31T23:01:39;-18671.00;;;12.33;100.00
28606;BME280;46498;49.968;7.754;2023-08-31T23:06:41;-18672.00;;;12.39;100.00
28606;BME280;46498;49.968;7.754;2023-08-31T23:11:42;-18674.00;;;12.45;100.00
28606;BME280;46498;49.968;7.754;2023-08-31T23:16:43;-18677.00;;;12.54;100.00
28606;BME280;46498;49.968;7.754;2023-08-31T23:21:44;-18677.00;;;12.53;100.00
28606;BME280;46498;49.968;7.754;2023-08-31T23:26:46;-18675.00;;;12.46;100.00
28606;BME280;46498;49.968;7.754;2023-08-31T23:31:47;-18669.00;;;12.29;100.00
28606;BME280;46498;49.968;7.754;2023-08-31T23:36:48;-18667.00;;;12.22;100.00
28606;BME280;46498;49.968;7.754;2023-08-31T23:41:49;-18674.00;;;12.43;100.00
28606;BME280;46498;49.968;7.754;2023-08-31T23:46:50;-18673.00;;;12.41;100.00
28606;BME280;46498;49.968;7.754;2023-08-31T23:51:51;-18677.00;;;12.52;100.00
28606;BME280;46498;49.968;7.754;2023-08-31T23:56:51;-18673.00;;;12.40;100.00
